Time;durP1;ratioP1;P1;durP2;ratioP2;P2;SDS_P1;SDS_P2;PMS_P1;PMS_P2;Temp;Humidity;BMP_temperature;BMP_pressure;BME280_temperature;BME280_humidity;BME280_pressure;Samples;Min_cycle;Max_cycle;Signal;HPM_P1;HPM_P2
2024/03/29 00:01:15;;;;;;;5.00;1.10;;;;;;;8.68;100.00;99083.13;5089482;28;20029;-39
2024/03/29 00:03:41;;;;;;;3.97;1.00;;;;;;;8.64;100.00;99081.22;5090077;28;20028;-39
2024/03/29 00:06:06;;;;;;;;;;;;;;;8.74;100.00;99086.66;5080596;28;20032;-39
2024/03/29 00:08:32;;;;;;;3.27;0.90;;;;;;;8.64;100.00;99092.81;5076658;28;19912;-39
2024/03/29 00:10:57;;;;;;;3.50;0.90;;;;;;;8.64;100.00;99082.03;5076113;28;20047;-39
2024/03/29 00:13:22;;;;;;;2.37;0.80;;;;;;;8.65;100.00;99085.53;5075953;28;20282;-39
2024/03/29 00:15:48;;;;;;;2.30;0.80;;;;;;;8.62;100.00;99084.16;5075705;28;20116;-39
2024/03/29 00:18:13;;;;;;;5.10;0.90;;;;;;;8.63;100.00;99087.66;5076290;28;20041;-39
2024/03/29 00:20:38;;;;;;;2.93;0.90;;;;;;;8.64;100.00;99094.69;5074683;28;20111;-40
2024/03/29 00:23:04;;;;;;;3.37;1.00;;;;;;;8.62;100.00;99094.94;5075877;28;20024;-38
2024/03/29 00:25:29;;;;;;;4.10;1.07;;;;;;;8.63;100.00;99098.44;5076414;28;20043;-39
2024/03/29 00:27:55;;;;;;;2.83;0.93;;;;;;;8.65;100.00;99117.88;5075409;28;20028;-39
2024/03/29 00:30:20;;;;;;;3.33;0.90;;;;;;;8.62;100.00;99115.69;5075962;28;20158;-39
2024/03/29 00:32:45;;;;;;;3.07;0.83;;;;;;;8.54;100.00;99105.38;5075349;28;20021;-39
2024/03/29 00:35:11;;;;;;;2.07;0.63;;;;;;;8.55;100.00;99102.47;5075762;28;20271;-39
2024/03/29 00:37:36;;;;;;;2.30;0.90;;;;;;;8.60;100.00;99110.56;5075923;28;20078;-39
2024/03/29 00:40:02;;;;;;;3.73;0.83;;;;;;;8.59;100.00;99108.13;5075854;28;20033;-39
2024/03/29 00:42:27;;;;;;;;;;;;;;;8.65;100.00;99109.78;5075594;28;20060;-39
2024/03/29 00:44:53;;;;;;;4.23;2.27;;;;;;;8.61;100.00;99111.38;5075771;28;19969;-39
2024/03/29 00:47:18;;;;;;;4.23;1.67;;;;;;;8.55;100.00;99104.34;5075940;28;20312;-39
2024/03/29 00:49:43;;;;;;;5.43;1.70;;;;;;;8.58;100.00;99119.97;5075449;28;20024;-39
2024/03/29 00:52:09;;;;;;;4.70;1.63;;;;;;;8.55;100.00;99115.13;5075336;28;20433;-39
2024/03/29 00:54:34;;;;;;;2.23;1.10;;;;;;;8.52;100.00;99130.72;5075657;28;20476;-39
2024/03/29 00:56:59;;;;;;;5.20;1.07;;;;;;;8.50;100.00;99130.16;5075242;28;20032;-40
2024/03/29 00:59:25;;;;;;;5.67;1.33;;;;;;;8.47;100.00;99121.78;5075501;28;20025;-39
2024/03/29 01:01:51;;;;;;;4.33;1.40;;;;;;;8.45;100.00;99132.03;5074814;28;20278;-39
2024/03/29 01:04:17;;;;;;;4.35;1.00;;;;;;;8.44;100.00;99123.13;5075831;28;20504;-40
2024/03/29 01:06:43;;;;;;;4.15;1.23;;;;;;;8.47;100.00;99129.88;5075197;28;20376;-39
2024/03/29 01:09:12;;;;;;;2.78;0.77;;;;;;;8.46;100.00;99126.38;5075782;28;20041;-39
2024/03/29 01:11:38;;;;;;;6.78;1.35;;;;;;;8.47;100.00;99122.59;5074902;28;20107;-39
2024/03/29 01:14:03;;;;;;;;;;;;;;;8.52;100.00;99135.28;5074970;28;20027;-40
2024/03/29 01:16:29;;;;;;;6.05;1.20;;;;;;;8.46;100.00;99137.16;5074931;28;19912;-40
2024/03/29 01:18:55;;;;;;;2.03;0.63;;;;;;;8.41;100.00;99131.72;5074280;28;20449;-39
2024/03/29 01:21:20;;;;;;;2.45;0.80;;;;;;;8.41;100.00;99125.53;5075538;28;20111;-39
2024/03/29 01:23:45;;;;;;;3.10;1.00;;;;;;;8.39;100.00;99122.25;5074650;28;20123;-40
2024/03/29 01:26:12;;;;;;;3.30;0.90;;;;;;;8.40;100.00;99122.03;5074934;28;20024;-38
2024/03/29 01:28:37;;;;;;;2.55;0.70;;;;;;;8.40;100.00;99116.63;5074811;28;20025;-40
2024/03/29 01:31:03;;;;;;;2.38;0.70;;;;;;;8.40;100.00;99113.13;5074665;28;20358;-39
2024/03/29 01:33:33;;;;;;;2.78;0.90;;;;;;;8.34;100.00;99101.47;5074327;28;20500;-39
2024/03/29 01:35:58;;;;;;;2.13;0.70;;;;;;;8.31;100.00;99095.78;5074126;28;20024;-39
2024/03/29 01:38:24;;;;;;;2.08;0.63;;;;;;;8.29;100.00;99097.91;5074356;28;20074;-40
2024/03/29 01:40:49;;;;;;;3.93;0.80;;;;;;;8.31;100.00;99093.09;5074697;28;20119;-39
2024/03/29 01:43:14;;;;;;;1.60;0.60;;;;;;;8.19;100.00;99071.72;5074769;28;20111;-39
2024/03/29 01:45:42;;;;;;;3.67;0.80;;;;;;;8.22;100.00;99071.22;5074533;28;20251;-39
2024/03/29 01:48:09;;;;;;;2.92;0.90;;;;;;;8.17;100.00;99053.16;5073847;28;20526;-39
2024/03/29 01:50:36;;;;;;;1.83;0.65;;;;;;;8.13;100.00;99043.97;5074105;28;20472;-39
2024/03/29 01:53:03;;;;;;;2.08;0.65;;;;;;;8.09;100.00;99056.31;5074097;28;20024;-39
2024/03/29 01:55:28;;;;;;;3.72;0.82;;;;;;;8.15;100.00;99067.94;5074213;28;20048;-39
2024/03/29 01:57:54;;;;;;;2.17;1.13;;;;;;;8.10;100.00;99070.56;5074005;28;20468;-40
2024/03/29 02:00:20;;;;;;;2.30;0.68;;;;;;;8.08;100.00;99064.66;5074447;28;20040;-39
2024/03/29 02:02:46;;;;;;;3.10;1.10;;;;;;;8.11;100.00;99056.06;5074136;28;20099;-38
2024/03/29 02:05:11;;;;;;;2.30;0.88;;;;;;;8.07;100.00;99054.97;5073872;28;20116;-39
2024/03/29 02:07:37;;;;;;;5.43;1.00;;;;;;;8.14;100.00;99063.63;5074388;28;20070;-39
2024/03/29 02:10:03;;;;;;;4.43;0.90;;;;;;;8.15;100.00;99068.75;5074038;28;20025;-39
2024/03/29 02:12:29;;;;;;;3.28;1.00;;;;;;;8.18;100.00;99079.00;5073442;28;20091;-39
2024/03/29 02:14:54;;;;;;;1.70;0.60;;;;;;;8.20;100.00;99082.25;5074133;28;20063;-39
2024/03/29 02:17:21;;;;;;;2.80;0.80;;;;;;;8.18;100.00;99078.19;5074226;28;20052;-39
2024/03/29 02:19:46;;;;;;;4.43;1.10;;;;;;;8.25;100.00;99089.56;5074220;28;20106;-39
2024/03/29 02:22:15;;;;;;;3.33;0.80;;;;;;;8.24;100.00;99099.50;5073684;28;20082;-39
2024/03/29 02:24:40;;;;;;;3.13;0.80;;;;;;;8.28;100.00;99094.41;5073930;28;20032;-38
2024/03/29 02:27:06;;;;;;;2.60;0.90;;;;;;;8.28;100.00;99091.72;5073237;28;20025;-39
2024/03/29 02:29:31;;;;;;;4.07;0.80;;;;;;;8.33;100.00;99107.09;5073337;28;20032;-39
2024/03/29 02:31:56;;;;;;;1.57;0.70;;;;;;;8.33;100.00;99102.53;5073465;28;20020;-39
2024/03/29 02:34:23;;;;;;;2.42;0.73;;;;;;;8.29;100.00;99087.94;5073943;28;20033;-39
2024/03/29 02:36:48;;;;;;;2.20;1.00;;;;;;;8.34;100.00;99082.59;5073071;28;20028;-39
2024/03/29 02:39:14;;;;;;;2.83;0.68;;;;;;;8.40;100.00;99111.25;5073414;28;20039;-39
2024/03/29 02:41:39;;;;;;;2.30;0.57;;;;;;;8.41;100.00;99098.59;5073356;28;20035;-39
2024/03/29 02:44:04;;;;;;;5.37;1.07;;;;;;;8.38;100.00;99096.41;5073405;28;20118;-39
2024/03/29 02:46:30;;;;;;;2.53;0.77;;;;;;;8.42;100.00;99106.41;5073347;28;20269;-39
2024/03/29 02:48:55;;;;;;;1.80;0.70;;;;;;;8.44;100.00;99109.66;5073108;28;20286;-39
2024/03/29 02:51:20;;;;;;;4.17;0.70;;;;;;;8.45;100.00;99108.59;5073272;28;20051;-39
2024/03/29 02:53:46;;;;;;;1.70;0.60;;;;;;;8.51;100.00;99110.25;5073441;28;20040;-39
2024/03/29 02:56:11;;;;;;;3.13;0.83;;;;;;;8.54;100.00;99105.38;5073789;28;20028;-39
2024/03/29 02:58:36;;;;;;;3.45;1.45;;;;;;;8.55;100.00;99110.53;5073499;28;20377;-39
2024/03/29 03:01:06;;;;;;;3.40;1.07;;;;;;;8.55;100.00;99118.63;5073160;28;20024;-40
2024/03/29 03:03:31;;;;;;;2.75;0.70;;;;;;;8.60;100.00;99115.16;5073689;28;20469;-39
2024/03/29 03:05:57;;;;;;;3.40;0.60;;;;;;;8.62;100.00;99118.38;5071942;28;20028;-39
2024/03/29 03:11:06;;;;;;;3.35;0.80;;;;;;;8.68;100.00;99122.72;5073142;28;20066;-39
2024/03/29 03:13:31;;;;;;;3.40;0.83;;;;;;;8.66;100.00;99127.56;5073034;28;20028;-38
2024/03/29 03:15:57;;;;;;;2.13;0.53;;;;;;;8.72;100.00;99138.13;5073126;28;20110;-39
2024/03/29 03:18:22;;;;;;;3.40;0.80;;;;;;;8.70;100.00;99129.50;5073016;28;20029;-39
2024/03/29 03:20:55;;;;;;;1.60;0.60;;;;;;;8.77;100.00;99146.22;5073615;28;20529;-39
2024/03/29 03:23:21;;;;;;;1.70;0.50;;;;;;;8.77;100.00;99129.25;5073250;28;20162;-39
2024/03/29 03:25:54;;;;;;;1.90;0.60;;;;;;;8.79;100.00;99143.28;5073049;28;20533;-39
2024/03/29 03:28:19;;;;;;;2.45;0.93;;;;;;;8.77;100.00;99145.41;5073002;28;20464;-39
2024/03/29 03:30:44;;;;;;;2.77;0.87;;;;;;;8.75;100.00;99117.94;5073207;28;20126;-39
2024/03/29 03:33:09;;;;;;;2.10;0.60;;;;;;;8.71;100.00;99122.22;5072853;28;20271;-39
2024/03/29 03:35:35;;;;;;;1.57;0.50;;;;;;;8.68;100.00;99137.00;5072889;28;20468;-39
2024/03/29 03:38:00;;;;;;;2.07;0.57;;;;;;;8.65;100.00;99120.56;5073072;28;20024;-39
2024/03/29 03:40:25;;;;;;;2.50;0.70;;;;;;;8.63;100.00;99118.13;5074247;28;20326;-39
2024/03/29 03:42:51;;;;;;;1.80;0.60;;;;;;;8.53;100.00;99120.75;5076626;28;20317;-38
2024/03/29 03:45:16;;;;;;;2.43;0.53;;;;;;;8.56;100.00;99117.53;5076373;28;20523;-39
2024/03/29 03:47:41;;;;;;;2.73;1.27;;;;;;;8.56;100.00;99135.59;5076197;28;20112;-39
2024/03/29 03:50:07;;;;;;;1.30;0.50;;;;;;;8.50;100.00;99130.16;5077063;28;20028;-39
2024/03/29 03:52:32;;;;;;;2.65;0.88;;;;;;;8.45;100.00;99121.25;5076687;28;20024;-39
2024/03/29 03:54:58;;;;;;;2.23;0.60;;;;;;;8.44;100.00;99123.13;5076649;28;20105;-39
2024/03/29 03:57:23;;;;;;;1.80;0.50;;;;;;;8.40;100.00;99130.09;5076603;28;20058;-39
2024/03/29 03:59:51;;;;;;;1.67;0.60;;;;;;;8.40;100.00;99134.69;5076615;28;20033;-39
2024/03/29 04:02:17;;;;;;;2.05;0.68;;;;;;;8.41;100.00;99145.19;5076490;28;20553;-38
2024/03/29 04:04:42;;;;;;;1.83;0.60;;;;;;;8.38;100.00;99143.00;5075912;28;20111;-38
2024/03/29 04:07:07;;;;;;;1.87;0.57;;;;;;;8.40;100.00;99140.88;5076134;28;20029;-39
2024/03/29 04:09:33;;;;;;;1.83;0.53;;;;;;;8.34;100.00;99132.97;5076968;28;20099;-39
2024/03/29 04:11:58;;;;;;;1.80;0.70;;;;;;;8.34;100.00;99144.53;5076040;28;20471;-39
2024/03/29 04:14:23;;;;;;;1.90;0.60;;;;;;;8.33;100.00;99155.59;5076013;28;20483;-39
2024/03/29 04:16:48;;;;;;;1.13;0.60;;;;;;;8.38;100.00;99161.84;5075924;28;20028;-38
2024/03/29 04:19:14;;;;;;;2.13;0.70;;;;;;;8.36;100.00;99155.09;5076267;28;20055;-39
2024/03/29 04:21:39;;;;;;;1.57;0.67;;;;;;;8.36;100.00;99171.25;5075643;28;20442;-40
2024/03/29 04:24:07;;;;;;;1.83;0.57;;;;;;;8.30;100.00;99183.06;5076451;28;20033;-39
2024/03/29 04:26:33;;;;;;;1.75;0.60;;;;;;;8.27;100.00;99173.59;5075441;28;20029;-39
2024/03/29 04:28:58;;;;;;;2.38;0.50;;;;;;;8.15;100.00;99154.91;5075805;28;20025;-38
2024/03/29 04:31:23;;;;;;;2.57;0.60;;;;;;;8.13;100.00;99167.00;5075749;28;20029;-39
2024/03/29 04:33:49;;;;;;;2.83;0.70;;;;;;;8.10;100.00;99162.13;5075951;28;20050;-39
2024/03/29 04:36:14;;;;;;;1.67;0.77;;;;;;;8.01;100.00;99153.72;5075522;28;20378;-40
2024/03/29 04:38:39;;;;;;;1.63;0.50;;;;;;;7.99;100.00;99175.47;5075568;28;20446;-38
2024/03/29 04:41:05;;;;;;;1.53;0.67;;;;;;;7.80;100.00;99158.06;5075460;28;20085;-39
2024/03/29 04:43:30;;;;;;;2.33;0.90;;;;;;;7.84;100.00;99169.13;5075703;28;20060;-38
2024/03/29 04:46:10;;;;;;;2.97;0.70;;;;;;;7.80;100.00;99159.94;5075107;28;20117;-38
2024/03/29 04:48:37;;;;;;;1.75;0.50;;;;;;;7.72;100.00;99180.88;5075630;28;20025;-38
2024/03/29 04:51:03;;;;;;;1.17;0.50;;;;;;;7.64;100.00;99165.16;5075198;28;20036;-38
2024/03/29 04:53:28;;;;;;;1.48;0.47;;;;;;;7.66;100.00;99156.84;5075173;28;20357;-39
2024/03/29 04:55:54;;;;;;;1.83;0.70;;;;;;;7.64;100.00;99165.16;5075862;28;20028;-39
2024/03/29 04:58:19;;;;;;;;;;;;;;;7.74;100.00;99165.28;5075578;28;20052;-39
2024/03/29 05:00:45;;;;;;;1.20;0.40;;;;;;;7.67;100.00;99169.25;5075415;28;20344;-39
2024/03/29 05:03:10;;;;;;;1.50;0.53;;;;;;;7.60;100.00;99176.69;5075166;28;20654;-39
2024/03/29 05:05:35;;;;;;;1.17;0.43;;;;;;;7.47;100.00;99173.34;5075912;28;20025;-39
2024/03/29 05:08:00;;;;;;;4.03;0.70;;;;;;;7.41;100.00;99162.75;5074720;28;20029;-39
2024/03/29 05:10:26;;;;;;;1.60;0.70;;;;;;;7.48;100.00;99172.25;5075942;28;20028;-39
2024/03/29 05:12:51;;;;;;;2.93;0.93;;;;;;;7.43;100.00;99172.22;5075737;28;20021;-39
2024/03/29 05:15:17;;;;;;;2.38;0.63;;;;;;;7.41;100.00;99163.56;5074878;28;20032;-39
2024/03/29 05:17:42;;;;;;;1.50;0.50;;;;;;;7.37;100.00;99159.78;5074880;28;20476;-38
2024/03/29 05:20:08;;;;;;;1.67;0.40;;;;;;;7.34;100.00;99160.25;5075207;28;20456;-38
2024/03/29 05:22:34;;;;;;;1.63;0.60;;;;;;;7.31;100.00;99170.69;5074408;28;20476;-38
2024/03/29 05:24:59;;;;;;;2.63;0.68;;;;;;;7.28;100.00;99174.72;5075007;28;20028;-39
2024/03/29 05:27:24;;;;;;;3.47;0.73;;;;;;;7.29;100.00;99175.53;5074970;28;20460;-39
2024/03/29 05:29:50;;;;;;;2.13;0.60;;;;;;;7.24;100.00;99170.88;5074703;28;20032;-39
2024/03/29 05:32:15;;;;;;;1.83;0.80;;;;;;;7.26;100.00;99160.69;5074521;28;20414;-39
2024/03/29 05:34:41;;;;;;;0.70;0.40;;;;;;;7.26;100.00;99152.63;5074733;28;20025;-39
2024/03/29 05:37:07;;;;;;;1.52;0.55;;;;;;;7.26;100.00;99147.25;5075225;28;20290;-39
2024/03/29 05:39:33;;;;;;;2.08;0.60;;;;;;;7.29;100.00;99141.38;5074674;28;20070;-39
2024/03/29 05:41:58;;;;;;;1.15;0.40;;;;;;;7.27;100.00;99150.75;5074026;28;20468;-39
2024/03/29 05:44:24;;;;;;;1.60;0.60;;;;;;;7.28;100.00;99157.78;5074136;28;20090;-39
2024/03/29 05:46:49;;;;;;;0.90;0.50;;;;;;;7.30;100.00;99156.44;5074792;28;20060;-39
2024/03/29 05:49:15;;;;;;;0.90;0.40;;;;;;;7.27;100.00;99150.75;5075019;28;20030;-39
2024/03/29 05:51:41;;;;;;;2.15;0.60;;;;;;;7.24;100.00;99149.38;5073823;28;20333;-39
2024/03/29 05:54:06;;;;;;;2.63;0.88;;;;;;;7.26;100.00;99158.00;5074675;28;20049;-39
2024/03/29 05:56:31;;;;;;;2.03;0.70;;;;;;;7.32;100.00;99159.72;5073817;28;20460;-39
2024/03/29 05:58:57;;;;;;;1.25;0.50;;;;;;;7.32;100.00;99157.03;5074009;28;20461;-39
2024/03/29 06:01:23;;;;;;;2.77;0.70;;;;;;;7.38;100.00;99160.56;5073973;28;20029;-39
2024/03/29 06:03:51;;;;;;;1.23;0.50;;;;;;;7.31;100.00;99160.75;5074047;28;20273;-39
2024/03/29 06:06:17;;;;;;;1.10;0.50;;;;;;;7.35;100.00;99171.81;5073827;28;20052;-38
2024/03/29 06:08:43;;;;;;;;;;;;;;;7.47;100.00;99175.22;5075082;28;20385;-38
2024/03/29 06:11:09;;;;;;;1.45;0.50;;;;;;;7.40;100.00;99196.91;5073785;28;19912;-39
2024/03/29 06:19:03;;;;;;;2.90;0.77;;;;;;;7.37;100.00;99197.41;5073717;28;20082;-39
2024/03/29 06:21:28;;;;;;;1.98;0.68;;;;;;;7.45;100.00;99209.59;5073695;28;20064;-40
2024/03/29 06:23:53;;;;;;;2.97;0.60;;;;;;;7.40;100.00;99206.84;5073632;28;20044;-39
2024/03/29 06:26:20;;;;;;;2.63;0.80;;;;;;;7.42;100.00;99207.44;5074002;28;20463;-39
2024/03/29 06:28:46;;;;;;;1.70;0.60;;;;;;;7.40;100.00;99196.91;5073836;28;20021;-40
2024/03/29 06:31:11;;;;;;;2.10;0.67;;;;;;;7.39;100.00;99194.47;5074036;28;20055;-38
2024/03/29 06:33:36;;;;;;;1.63;0.87;;;;;;;7.37;100.00;99194.72;5074002;28;20119;-39
2024/03/29 06:36:02;;;;;;;2.30;0.87;;;;;;;7.42;100.00;99200.16;5073246;28;20020;-40
2024/03/29 06:38:27;;;;;;;2.40;0.90;;;;;;;7.35;100.00;99193.34;5073810;28;20032;-39
2024/03/29 06:40:52;;;;;;;1.50;0.60;;;;;;;7.43;100.00;99193.72;5073742;28;20071;-39
2024/03/29 06:43:18;;;;;;;1.30;0.60;;;;;;;7.43;100.00;99190.22;5073456;28;20028;-39
2024/03/29 06:45:43;;;;;;;2.43;0.90;;;;;;;7.48;100.00;99201.84;5073445;28;20089;-39
2024/03/29 06:48:09;;;;;;;1.40;0.67;;;;;;;7.42;100.00;99184.03;5073639;28;20082;-38
2024/03/29 06:50:34;;;;;;;1.58;0.57;;;;;;;7.46;100.00;99181.63;5074125;28;20111;-39
2024/03/29 06:53:00;;;;;;;1.00;0.55;;;;;;;7.47;100.00;99167.94;5073748;28;20055;-39
2024/03/29 06:55:26;;;;;;;2.00;0.60;;;;;;;7.47;100.00;99148.31;5073852;28;20072;-39
2024/03/29 06:57:51;;;;;;;2.08;0.60;;;;;;;7.55;100.00;99172.06;5073263;28;20025;-40
2024/03/29 07:00:17;;;;;;;1.13;0.50;;;;;;;7.55;100.00;99180.13;5073367;28;20449;-40
2024/03/29 07:02:42;;;;;;;2.17;0.60;;;;;;;7.46;100.00;99177.06;5072999;28;20025;-40
2024/03/29 07:05:11;;;;;;;1.52;0.60;;;;;;;7.54;100.00;99180.38;5073254;28;20464;-40
2024/03/29 07:07:37;;;;;;;2.05;0.70;;;;;;;7.55;100.00;99185.50;5073086;28;20033;-39
2024/03/29 07:10:02;;;;;;;2.20;0.98;;;;;;;7.53;100.00;99189.53;5072827;28;20055;-39
2024/03/29 07:12:28;;;;;;;0.90;0.57;;;;;;;7.56;100.00;99181.75;5073084;28;20086;-39
2024/03/29 07:14:53;;;;;;;1.00;0.60;;;;;;;7.59;100.00;99189.31;5073133;28;20110;-38
2024/03/29 07:17:18;;;;;;;1.00;0.60;;;;;;;7.63;100.00;99193.16;5077318;28;20029;-38
2024/03/29 07:19:44;;;;;;;1.20;0.60;;;;;;;7.56;100.00;99168.31;5077146;28;20107;-39
2024/03/29 07:22:09;;;;;;;3.20;0.67;;;;;;;7.67;100.00;99188.09;5077278;28;20035;-39
2024/03/29 07:24:34;;;;;;;3.30;0.90;;;;;;;7.77;100.00;99198.94;5077284;28;20032;-39
2024/03/29 07:26:59;;;;;;;1.33;0.60;;;;;;;7.80;100.00;99211.06;5076935;28;20484;-39
2024/03/29 07:29:25;;;;;;;1.73;0.70;;;;;;;7.82;100.00;99211.66;5076645;28;20024;-38
2024/03/29 07:31:50;;;;;;;1.10;0.57;;;;;;;7.82;100.00;99222.41;5076828;28;20036;-40
2024/03/29 07:34:16;;;;;;;1.27;0.60;;;;;;;7.79;100.00;99226.41;5076508;28;20024;-40
2024/03/29 07:36:41;;;;;;;1.38;0.98;;;;;;;7.78;100.00;99218.59;5076699;28;20363;-40
2024/03/29 07:39:06;;;;;;;1.60;0.67;;;;;;;7.87;100.00;99206.31;5076697;28;20035;-40
2024/03/29 07:41:32;;;;;;;1.20;0.60;;;;;;;7.84;100.00;99212.19;5076597;28;20020;-40
2024/03/29 07:44:03;;;;;;;1.48;0.60;;;;;;;7.79;100.00;99217.53;5076825;28;20299;-39
2024/03/29 07:46:33;;;;;;;2.22;0.82;;;;;;;7.78;100.00;99213.22;5077057;28;20051;-39
2024/03/29 07:48:58;;;;;;;1.60;0.70;;;;;;;7.83;100.00;99222.16;5077294;28;20166;-39
2024/03/29 07:51:24;;;;;;;2.17;1.03;;;;;;;7.82;100.00;99235.88;5076153;28;20111;-39
2024/03/29 07:53:49;;;;;;;1.30;0.63;;;;;;;7.87;100.00;99233.22;5076322;28;20294;-39
2024/03/29 07:56:15;;;;;;;1.90;0.67;;;;;;;7.87;100.00;99228.66;5076579;28;20025;-40
2024/03/29 07:58:41;;;;;;;1.30;0.60;;;;;;;7.82;100.00;99201.69;5076324;28;20266;-39
2024/03/29 08:01:06;;;;;;;1.30;0.63;;;;;;;7.94;100.00;99225.75;5076255;28;20062;-39
2024/03/29 08:03:35;;;;;;;0.90;0.60;;;;;;;7.97;100.00;99220.69;5076247;28;20031;-39
2024/03/29 08:06:05;;;;;;;1.13;0.60;;;;;;;8.04;100.00;99217.78;5076171;28;20032;-38
2024/03/29 08:08:32;;;;;;;3.55;1.10;;;;;;;8.16;100.00;99214.97;5076934;28;20093;-39
2024/03/29 08:10:57;;;;;;;1.27;0.60;;;;;;;8.23;100.00;99199.41;5076713;28;20027;-39
2024/03/29 08:13:25;;;;;;;2.38;0.80;;;;;;;8.25;100.00;99205.38;5075896;28;20441;-40
2024/03/29 08:15:56;;;;;;;2.05;0.70;;;;;;;8.26;100.00;99218.56;5076795;28;20062;-40
2024/03/29 08:18:22;;;;;;;1.42;0.60;;;;;;;8.30;100.00;99216.19;5076223;28;20024;-39
2024/03/29 08:20:47;;;;;;;0.85;0.50;;;;;;;8.44;100.00;99208.50;5075966;28;20512;-38
2024/03/29 08:23:12;;;;;;;1.40;0.70;;;;;;;8.51;100.00;99198.34;5075908;28;20020;-38
2024/03/29 08:25:38;;;;;;;2.13;0.93;;;;;;;8.59;100.00;99200.56;5075834;28;20028;-39
2024/03/29 08:28:04;;;;;;;2.90;0.70;;;;;;;8.69;100.00;99203.31;5075411;28;20449;-39
2024/03/29 08:30:34;;;;;;;1.98;0.60;;;;;;;8.88;100.00;99219.91;5075729;28;20266;-39
2024/03/29 08:33:03;;;;;;;1.85;0.63;;;;;;;9.00;100.00;99225.91;5076482;28;20033;-39
2024/03/29 08:35:33;;;;;;;1.55;0.70;;;;;;;9.13;100.00;99229.22;5075545;28;20119;-39
2024/03/29 08:37:58;;;;;;;2.08;0.55;;;;;;;9.29;100.00;99218.25;5075563;28;20020;-39
2024/03/29 08:40:25;;;;;;;2.72;0.80;;;;;;;9.34;100.00;99216.66;5075345;28;20097;-39
2024/03/29 08:42:50;;;;;;;2.45;0.60;;;;;;;9.37;100.00;99208.84;5075465;28;20035;-40
2024/03/29 08:45:16;;;;;;;0.85;0.60;;;;;;;9.47;100.00;99214.31;5076266;28;20033;-40
2024/03/29 08:47:41;;;;;;;1.83;0.67;;;;;;;9.41;100.00;99219.91;5075637;28;20028;-40
2024/03/29 08:50:07;;;;;;;1.77;0.80;;;;;;;9.46;100.00;99245.03;5075416;28;20265;-39
2024/03/29 08:52:32;;;;;;;2.33;0.95;;;;;;;9.43;100.00;99234.78;5075338;28;20078;-38
2024/03/29 08:54:58;;;;;;;1.42;0.73;;;;;;;9.40;100.00;99251.47;5075892;28;20378;-39
2024/03/29 08:57:23;;;;;;;2.13;0.80;;;;;;;9.29;100.00;99252.50;5075260;28;20115;-39
2024/03/29 08:59:48;;;;;;;1.67;0.70;;;;;;;9.35;100.00;99264.13;5075230;28;20263;-39
2024/03/29 09:02:14;;;;;;;1.30;0.80;;;;;;;9.34;100.00;99252.53;5075139;28;20029;-40
2024/03/29 09:04:39;;;;;;;1.93;0.80;;;;;;;9.31;100.00;99257.63;5075147;28;20024;-40
2024/03/29 09:07:04;;;;;;;1.85;0.80;;;;;;;9.37;100.00;99246.63;5075076;28;20024;-39
2024/03/29 09:09:31;;;;;;;2.50;1.07;;;;;;;9.36;100.00;99226.09;5075135;28;20421;-39
2024/03/29 09:11:57;;;;;;;7.20;1.08;;;;;;;9.67;100.00;99234.34;5074861;28;20060;-39
2024/03/29 09:14:24;;;;;;;2.45;0.90;;;;;;;9.81;100.00;99232.78;5075643;28;20056;-38
2024/03/29 09:16:49;;;;;;;2.80;1.08;;;;;;;10.01;100.00;99245.53;5074796;28;20032;-39
2024/03/29 09:19:15;;;;;;;2.50;1.08;;;;;;;10.00;100.00;99236.63;5074580;28;20082;-39
2024/03/29 09:21:40;;;;;;;2.20;0.75;;;;;;;9.98;100.00;99236.06;5074785;28;20036;-39
2024/03/29 09:24:06;;;;;;;2.42;0.93;;;;;;;10.01;100.00;99246.34;5075215;28;20119;-39
2024/03/29 09:26:32;;;;;;;2.25;1.08;;;;;;;10.02;100.00;99258.75;5074698;28;20025;-38
2024/03/29 09:28:57;;;;;;;2.78;0.80;;;;;;;10.05;100.00;99252.84;5074662;28;20032;-38
2024/03/29 09:31:23;;;;;;;2.50;1.00;;;;;;;10.27;100.00;99258.03;5074284;28;20050;-38
2024/03/29 09:33:52;;;;;;;2.45;0.93;;;;;;;10.31;100.00;99250.22;5074956;28;20028;-39
2024/03/29 09:36:19;;;;;;;2.38;1.00;;;;;;;10.33;100.00;99258.84;5074927;28;20041;-39
2024/03/29 09:38:45;;;;;;;2.42;0.98;;;;;;;10.47;100.00;99259.16;5074149;28;20032;-39
2024/03/29 09:41:14;;;;;;;1.73;0.90;;;;;;;10.58;100.00;99277.00;5074325;28;20040;-39
2024/03/29 09:43:42;;;;;;;1.98;0.85;;;;;;;10.65;100.00;99261.34;5075129;28;20309;-39
2024/03/29 09:46:08;;;;;;;2.67;1.08;;;;;;;10.70;100.00;99261.34;5074287;28;20453;-39
2024/03/29 09:48:38;;;;;;;2.50;1.08;;;;;;;10.77;100.00;99285.38;5074474;28;20051;-40
2024/03/29 09:51:08;;;;;;;1.40;0.90;;;;;;;10.75;100.00;99264.03;5074723;28;20445;-40
2024/03/29 09:53:37;;;;;;;2.67;0.98;;;;;;;10.87;100.00;99293.50;5073752;28;20025;-39
2024/03/29 09:56:06;;;;;;;1.73;0.80;;;;;;;10.88;100.00;99288.91;5074148;28;20035;-38
2024/03/29 09:58:36;;;;;;;4.47;1.05;;;;;;;10.88;100.00;99272.66;5074267;28;20480;-39
2024/03/29 10:01:06;;;;;;;2.35;1.13;;;;;;;11.03;100.00;99291.63;5074782;28;20071;-39
2024/03/29 10:03:39;;;;;;;1.95;0.93;;;;;;;10.99;100.00;99298.66;5073909;28;20107;-39
2024/03/29 10:06:08;;;;;;;2.17;1.08;;;;;;;11.09;100.00;99294.03;5074439;28;20040;-39
2024/03/29 10:08:33;;;;;;;1.45;0.80;;;;;;;11.17;100.00;99289.16;5073774;28;20048;-39
2024/03/29 10:10:59;;;;;;;2.63;0.90;;;;;;;11.26;100.00;99290.22;5074426;28;20102;-39
2024/03/29 10:13:25;;;;;;;3.03;0.95;;;;;;;11.23;100.00;99294.31;5073780;28;20618;-39
2024/03/29 10:15:55;;;;;;;2.25;1.00;;;;;;;11.38;100.00;99279.94;5073957;28;20036;-39
2024/03/29 10:18:25;;;;;;;2.40;1.00;;;;;;;11.48;100.00;99276.38;5073370;28;20481;-39
2024/03/29 10:21:05;;;;;;;2.00;0.90;;;;;;;11.82;100.00;99276.56;5073636;28;20107;-39
2024/03/29 10:23:31;;;;;;;1.63;1.00;;;;;;;12.06;100.00;99279.44;5074079;28;20074;-39
2024/03/29 10:25:57;;;;;;;2.35;0.90;;;;;;;12.07;100.00;99281.06;5074426;28;20021;-39
2024/03/29 10:28:23;;;;;;;1.88;0.88;;;;;;;12.05;100.00;99278.66;5073473;28;20035;-39
2024/03/29 10:30:49;;;;;;;;;;;;;;;12.22;100.00;99288.31;5074239;28;20028;-39
2024/03/29 10:33:16;;;;;;;2.47;1.25;;;;;;;12.07;100.00;99291.91;5073521;28;20387;-39
2024/03/29 10:35:44;;;;;;;3.00;1.00;;;;;;;12.03;100.00;99288.13;5074050;28;20059;-39
2024/03/29 10:38:11;;;;;;;2.00;0.80;;;;;;;12.04;100.00;99282.41;5073207;28;20447;-39
2024/03/29 10:40:45;;;;;;;2.53;0.82;;;;;;;12.20;100.00;99276.91;5074023;28;20033;-39
2024/03/29 10:43:16;;;;;;;2.08;0.93;;;;;;;12.39;100.00;99288.72;5073635;28;20033;-39
2024/03/29 10:45:41;;;;;;;2.72;1.10;;;;;;;12.63;100.00;99276.09;5073858;28;20039;-39
2024/03/29 10:48:09;;;;;;;1.63;0.88;;;;;;;12.78;100.00;99290.63;5073187;28;20384;-39
2024/03/29 10:50:40;;;;;;;1.15;0.60;;;;;;;12.65;100.00;99266.88;5073683;28;20492;-39
2024/03/29 10:53:06;;;;;;;1.42;0.60;;;;;;;12.86;100.00;99287.31;5073195;28;20035;-39
2024/03/29 10:55:34;;;;;;;1.55;0.75;;;;;;;12.83;100.00;99299.56;5074395;28;20044;-39
2024/03/29 10:58:01;;;;;;;1.98;0.80;;;;;;;12.92;100.00;99307.06;5073311;28;20062;-39
2024/03/29 11:00:37;;;;;;;0.98;0.60;;;;;;;12.98;100.00;99317.63;5073780;28;20032;-39
2024/03/29 11:03:20;;;;;;;0.73;0.52;;;;;;;13.07;100.00;99315.91;5074300;28;20078;-38
2024/03/29 11:05:49;;;;;;;1.48;0.50;;;;;;;12.99;100.00;99330.09;5073271;28;20043;-39
2024/03/29 11:08:27;;;;;;;1.00;0.57;;;;;;;13.20;100.00;99324.50;5073174;28;20056;-39
2024/03/29 11:10:57;;;;;;;1.88;0.65;;;;;;;13.33;100.00;99313.81;5072813;28;20028;-40
2024/03/29 11:13:26;;;;;;;1.77;0.73;;;;;;;13.33;100.00;99319.25;5073127;28;20028;-39
2024/03/29 11:15:53;;;;;;;1.08;0.60;;;;;;;13.08;100.00;99301.25;5072846;28;20095;-39
2024/03/29 11:18:20;;;;;;;0.90;0.50;;;;;;;12.97;100.00;99294.28;5073903;28;20029;-39
2024/03/29 11:20:50;;;;;;;2.03;0.63;;;;;;;13.07;100.00;99282.53;5073902;28;20024;-39
2024/03/29 11:23:16;;;;;;;1.85;0.90;;;;;;;13.14;100.00;99286.53;5073886;28;20029;-39
2024/03/29 11:25:44;;;;;;;2.95;0.88;;;;;;;13.32;100.00;99276.91;5073362;28;20069;-38
2024/03/29 11:28:13;;;;;;;7.80;1.55;;;;;;;13.51;100.00;99290.53;5073791;28;20037;-39
2024/03/29 11:30:49;;;;;;;3.90;0.70;;;;;;;13.67;100.00;99306.69;5073025;28;20108;-40
2024/03/29 11:33:30;;;;;;;1.40;0.65;;;;;;;13.58;100.00;99304.59;5073273;28;20131;-39
2024/03/29 11:36:05;;;;;;;1.10;0.65;;;;;;;13.58;100.00;99320.09;5073460;28;20067;-40
2024/03/29 11:38:35;;;;;;;1.55;0.70;;;;;;;13.57;100.00;99316.56;5073088;28;20472;-39